Time;durP1;ratioP1;P1;durP2;ratioP2;P2;SDS_P1;SDS_P2;PMS_P1;PMS_P2;Temp;Humidity;BMP_temperature;BMP_pressure;BME280_temperature;BME280_humidity;BME280_pressure;Samples;Min_cycle;Max_cycle;Signal;HPM_P1;HPM_P2
2023/04/17 00:01:36;;;;;;;;;;;9.60;88.20;;;;;;5059829;28;19932;-64
2023/04/17 00:04:03;;;;;;;;;;;9.60;88.20;;;;;;5062350;28;20025;-66
2023/04/17 00:06:32;;;;;;;;;;;9.60;88.30;;;;;;5067911;28;20446;-63
2023/04/17 00:08:59;;;;;;;;;;;9.60;88.30;;;;;;5067672;28;19925;-65
2023/04/17 00:11:26;;;;;;;;;;;9.50;88.30;;;;;;5062756;28;19932;-65
2023/04/17 00:13:56;;;;;;;;;;;9.50;88.40;;;;;;5060979;28;20267;-65
2023/04/17 00:16:25;;;;;;;;;;;9.50;88.40;;;;;;5060877;28;19939;-64
2023/04/17 00:18:52;;;;;;;;;;;9.50;88.50;;;;;;5069759;28;19964;-65
2023/04/17 00:21:19;;;;;;;;;;;9.50;88.60;;;;;;5065454;28;19924;-65
2023/04/17 00:23:46;;;;;;;;;;;9.50;88.60;;;;;;5067950;28;19933;-66
2023/04/17 00:26:12;;;;;;;;;;;9.50;88.50;;;;;;5067596;28;19936;-66
2023/04/17 00:28:42;;;;;;;;;;;9.50;88.50;;;;;;5068026;28;19928;-66
2023/04/17 00:31:09;;;;;;;;;;;9.50;88.50;;;;;;5066473;28;19935;-66
2023/04/17 00:33:37;;;;;;;;;;;9.50;88.50;;;;;;5063436;28;20414;-65
2023/04/17 00:36:04;;;;;;;;;;;9.40;88.50;;;;;;5042454;28;20744;-64
2023/04/17 00:38:31;;;;;;;;;;;9.40;88.60;;;;;;5056724;28;19924;-65
2023/04/17 00:40:57;;;;;;;;;;;9.40;88.60;;;;;;5058578;28;19937;-64
2023/04/17 00:43:24;;;;;;;;;;;9.40;88.60;;;;;;5052227;28;19928;-64
2023/04/17 00:45:52;;;;;;;;;;;9.40;88.50;;;;;;5060384;28;19953;-66
2023/04/17 00:48:19;;;;;;;;;;;9.40;88.50;;;;;;5060884;28;20360;-66
2023/04/17 00:50:48;;;;;;;;;;;9.40;88.50;;;;;;5067321;28;19924;-64
2023/04/17 00:53:15;;;;;;;;;;;9.40;88.40;;;;;;5058161;28;19944;-64
2023/04/17 00:55:42;;;;;;;;;;;9.40;88.30;;;;;;5034036;28;20610;-65
2023/04/17 00:58:10;;;;;;;;;;;9.40;88.30;;;;;;5045336;28;19924;-64
2023/04/17 01:00:37;;;;;;;;;;;9.40;88.40;;;;;;5065753;28;19924;-65
2023/04/17 01:03:03;;;;;;;;;;;9.40;88.50;;;;;;5044060;28;19924;-63
2023/04/17 01:05:30;;;;;;;;;;;9.40;88.50;;;;;;5065074;28;20324;-64
2023/04/17 01:07:58;;;;;;;;;;;9.40;88.50;;;;;;5067316;28;20264;-66
2023/04/17 01:10:25;;;;;;;;;;;9.40;88.50;;;;;;5057523;28;19971;-66
2023/04/17 01:13:00;;;;;;;;;;;9.40;88.50;;;;;;5065468;28;19931;-66
2023/04/17 01:15:27;;;;;;;;;;;9.40;88.60;;;;;;5044037;28;19929;-67
2023/04/17 01:17:54;;;;;;;;;;;9.40;88.60;;;;;;5041893;28;19954;-65
2023/04/17 01:20:21;;;;;;;;;;;9.40;88.70;;;;;;5046035;28;19928;-65
2023/04/17 01:22:49;;;;;;;;;;;9.40;88.60;;;;;;5047788;28;20390;-65
2023/04/17 01:25:17;;;;;;;;;;;9.40;88.60;;;;;;5062394;28;19939;-65
2023/04/17 01:27:44;;;;;;;;;;;9.30;88.60;;;;;;5063392;28;19947;-65
2023/04/17 01:30:11;;;;;;;;;;;9.40;88.60;;;;;;5053279;28;20484;-66
2023/04/17 01:32:44;;;;;;;;;;;9.30;88.60;;;;;;5045440;28;19960;-65
2023/04/17 01:35:11;;;;;;;;;;;9.30;88.50;;;;;;5062504;28;19928;-66
2023/04/17 01:37:38;;;;;;;;;;;9.30;88.50;;;;;;5044336;28;19924;-64
2023/04/17 01:40:07;;;;;;;;;;;9.30;88.50;;;;;;5063101;28;19986;-65
2023/04/17 01:42:35;;;;;;;;;;;9.30;88.40;;;;;;5064922;28;19935;-66
2023/04/17 01:45:02;;;;;;;;;;;9.30;88.30;;;;;;5060860;28;19925;-65
2023/04/17 01:47:29;;;;;;;;;;;9.30;88.30;;;;;;5062319;28;19936;-64
2023/04/17 01:49:56;;;;;;;;;;;9.30;88.20;;;;;;5060507;28;20524;-63
2023/04/17 01:52:23;;;;;;;;;;;9.20;88.20;;;;;;5058415;28;20346;-64
2023/04/17 01:54:49;;;;;;;;;;;9.20;88.30;;;;;;5059645;28;19933;-65
2023/04/17 01:57:16;;;;;;;;;;;9.20;88.40;;;;;;5061375;28;20029;-65
2023/04/17 01:59:44;;;;;;;;;;;9.20;88.40;;;;;;5043562;28;19929;-63
2023/04/17 02:02:11;;;;;;;;;;;9.20;88.50;;;;;;5038488;28;19928;-64
2023/04/17 02:04:38;;;;;;;;;;;9.20;88.50;;;;;;5064010;28;19924;-64
2023/04/17 02:07:04;;;;;;;;;;;9.20;88.50;;;;;;5047334;28;19928;-66
2023/04/17 02:09:31;;;;;;;;;;;9.20;88.50;;;;;;5068503;28;19928;-66
2023/04/17 02:11:58;;;;;;;;;;;9.20;88.50;;;;;;5067290;28;19937;-66
2023/04/17 02:14:25;;;;;;;;;;;9.20;88.50;;;;;;5063520;28;19932;-65
2023/04/17 02:16:53;;;;;;;;;;;9.20;88.50;;;;;;5057135;28;19929;-65
2023/04/17 02:19:20;;;;;;;;;;;9.20;88.60;;;;;;5065400;28;19991;-65
2023/04/17 02:21:46;;;;;;;;;;;9.20;88.60;;;;;;5054980;28;19929;-64
2023/04/17 02:24:13;;;;;;;;;;;9.20;88.60;;;;;;5067996;28;19928;-66
2023/04/17 02:26:40;;;;;;;;;;;9.20;88.60;;;;;;5071469;28;19931;-65
2023/04/17 02:29:07;;;;;;;;;;;9.20;88.60;;;;;;5069684;28;19932;-64
2023/04/17 02:31:33;;;;;;;;;;;9.20;88.60;;;;;;5071922;28;19964;-66
2023/04/17 02:34:02;;;;;;;;;;;9.20;88.70;;;;;;5070882;28;19932;-65
2023/04/17 02:36:28;;;;;;;;;;;9.20;88.70;;;;;;5072040;28;20390;-64
2023/04/17 02:38:55;;;;;;;;;;;9.20;88.80;;;;;;5046104;28;19994;-64
2023/04/17 02:41:22;;;;;;;;;;;9.20;88.80;;;;;;5050819;28;19936;-63
2023/04/17 02:43:49;;;;;;;;;;;9.20;88.80;;;;;;5053346;28;19987;-66
2023/04/17 02:46:17;;;;;;;;;;;9.20;88.80;;;;;;5049070;28;20028;-64
2023/04/17 02:48:44;;;;;;;;;;;9.20;88.80;;;;;;5050723;28;19935;-64
2023/04/17 02:51:12;;;;;;;;;;;9.20;88.90;;;;;;5042998;28;20303;-65
2023/04/17 02:53:39;;;;;;;;;;;9.20;89.00;;;;;;5062544;28;20065;-66
2023/04/17 02:56:05;;;;;;;;;;;9.20;89.00;;;;;;5036884;28;20413;-65
2023/04/17 02:58:34;;;;;;;;;;;9.20;89.00;;;;;;5042820;28;20371;-65
2023/04/17 03:01:01;;;;;;;;;;;9.20;88.90;;;;;;5037675;28;19940;-65
2023/04/17 03:03:33;;;;;;;;;;;9.20;88.90;;;;;;5050402;28;20302;-64
2023/04/17 03:06:01;;;;;;;;;;;9.20;88.80;;;;;;5051976;28;19925;-66
2023/04/17 03:08:34;;;;;;;;;;;9.10;88.90;;;;;;5047113;28;19986;-66
2023/04/17 03:11:01;;;;;;;;;;;9.10;88.90;;;;;;5068396;28;19928;-65
2023/04/17 03:13:28;;;;;;;;;;;9.10;88.90;;;;;;5049383;28;19944;-64
2023/04/17 03:15:54;;;;;;;;;;;9.10;89.00;;;;;;5048663;28;20002;-65
2023/04/17 03:18:21;;;;;;;;;;;9.10;89.00;;;;;;5067515;28;20438;-66
2023/04/17 03:20:48;;;;;;;;;;;9.10;89.00;;;;;;5067804;28;19924;-65
2023/04/17 03:23:14;;;;;;;;;;;9.10;89.00;;;;;;5050313;28;19932;-65
2023/04/17 03:25:43;;;;;;;;;;;9.10;88.90;;;;;;5063769;28;19940;-64
2023/04/17 03:28:11;;;;;;;;;;;9.10;88.90;;;;;;5045472;28;19937;-65
2023/04/17 03:30:38;;;;;;;;;;;9.00;88.90;;;;;;5043488;28;19935;-63
2023/04/17 03:33:07;;;;;;;;;;;9.00;89.00;;;;;;5048065;28;19932;-64
2023/04/17 03:35:34;;;;;;;;;;;9.00;89.00;;;;;;5063560;28;19943;-63
2023/04/17 03:38:05;;;;;;;;;;;9.00;88.90;;;;;;5044679;28;19956;-65
2023/04/17 03:40:32;;;;;;;;;;;8.90;88.80;;;;;;5066304;28;19939;-65
2023/04/17 03:43:00;;;;;;;;;;;8.90;88.80;;;;;;5062462;28;19960;-65
2023/04/17 03:45:27;;;;;;;;;;;9.00;88.70;;;;;;5046531;28;19940;-63
2023/04/17 03:47:54;;;;;;;;;;;9.00;88.80;;;;;;5070698;28;19932;-64
2023/04/17 03:50:20;;;;;;;;;;;8.90;88.80;;;;;;5070192;28;19936;-65
2023/04/17 03:52:54;;;;;;;;;;;8.90;88.90;;;;;;5050764;28;19928;-64
2023/04/17 03:55:21;;;;;;;;;;;8.90;88.90;;;;;;5052044;28;19928;-65
2023/04/17 03:57:50;;;;;;;;;;;8.90;89.00;;;;;;5049773;28;19929;-64
2023/04/17 04:00:20;;;;;;;;;;;8.90;89.00;;;;;;5050256;28;19942;-64
2023/04/17 04:02:55;;;;;;;;;;;8.90;89.10;;;;;;5039637;28;19932;-63
2023/04/17 04:05:26;;;;;;;;;;;8.90;89.10;;;;;;5045323;28;19933;-65
2023/04/17 04:07:53;;;;;;;;;;;8.90;89.20;;;;;;5058175;28;19936;-64
2023/04/17 04:10:31;;;;;;;;;;;8.90;89.20;;;;;;5040896;28;19938;-64
2023/04/17 04:12:58;;;;;;;;;;;8.90;89.10;;;;;;5064623;28;19932;-64
2023/04/17 04:15:27;;;;;;;;;;;8.90;89.00;;;;;;5056195;28;20021;-63
2023/04/17 04:17:58;;;;;;;;;;;8.90;89.10;;;;;;5041202;28;20284;-64
2023/04/17 04:20:25;;;;;;;;;;;8.80;89.20;;;;;;5058597;28;19935;-63
2023/04/17 04:22:59;;;;;;;;;;;8.90;89.10;;;;;;5044649;28;20587;-63
2023/04/17 04:25:27;;;;;;;;;;;8.90;89.10;;;;;;5048795;28;19924;-65
2023/04/17 04:28:12;;;;;;;;;;;8.80;89.20;;;;;;5045159;28;19932;-64
2023/04/17 04:30:40;;;;;;;;;;;8.80;89.30;;;;;;5049403;28;19928;-63
2023/04/17 04:33:14;;;;;;;;;;;8.80;89.30;;;;;;5046533;28;19986;-65
2023/04/17 04:35:46;;;;;;;;;;;8.90;89.20;;;;;;5066387;28;19967;-63
2023/04/17 04:38:14;;;;;;;;;;;8.90;89.20;;;;;;5045317;28;19933;-63
2023/04/17 04:40:48;;;;;;;;;;;8.90;89.20;;;;;;5051539;28;19929;-64
2023/04/17 04:43:15;;;;;;;;;;;8.90;89.20;;;;;;5067921;28;19928;-64
2023/04/17 04:45:45;;;;;;;;;;;8.90;89.20;;;;;;5041451;28;19928;-60
2023/04/17 04:48:12;;;;;;;;;;;8.90;89.20;;;;;;5065066;28;19924;-62
2023/04/17 04:50:38;;;;;;;;;;;8.90;89.30;;;;;;5061629;28;19924;-63
2023/04/17 04:53:05;;;;;;;;;;;8.90;89.40;;;;;;5045248;28;19924;-64
2023/04/17 04:55:53;;;;;;;;;;;8.90;89.40;;;;;;5045654;28;19959;-64
2023/04/17 04:58:20;;;;;;;;;;;8.90;89.30;;;;;;5052712;28;19931;-64
2023/04/17 05:00:50;;;;;;;;;;;8.90;89.30;;;;;;5050143;28;20063;-64
2023/04/17 05:03:24;;;;;;;;;;;8.90;89.40;;;;;;5045304;28;19931;-63
2023/04/17 05:05:51;;;;;;;;;;;8.90;89.50;;;;;;5041907;28;19932;-65
2023/04/17 05:08:20;;;;;;;;;;;8.80;89.50;;;;;;5064070;28;20031;-65
2023/04/17 05:10:56;;;;;;;;;;;8.80;89.50;;;;;;5044647;28;19929;-65
2023/04/17 05:13:23;;;;;;;;;;;8.90;89.50;;;;;;5065638;28;19932;-63
2023/04/17 05:15:51;;;;;;;;;;;8.90;89.50;;;;;;5041956;28;20035;-65
2023/04/17 05:18:22;;;;;;;;;;;8.90;89.50;;;;;;5048545;28;20391;-64
2023/04/17 05:20:49;;;;;;;;;;;8.90;89.60;;;;;;5043044;28;19939;-63
2023/04/17 05:23:19;;;;;;;;;;;8.90;89.60;;;;;;5047377;28;19940;-64
2023/04/17 05:25:48;;;;;;;;;;;8.90;89.50;;;;;;5050431;28;20386;-63
2023/04/17 05:28:15;;;;;;;;;;;9.00;89.60;;;;;;5064069;28;19931;-65
2023/04/17 05:30:42;;;;;;;;;;;9.00;89.50;;;;;;5045290;28;19944;-63
2023/04/17 05:33:19;;;;;;;;;;;9.00;89.50;;;;;;5046358;28;19994;-64
2023/04/17 05:35:50;;;;;;;;;;;9.00;89.50;;;;;;5049644;28;19928;-62
2023/04/17 05:38:17;;;;;;;;;;;9.00;89.40;;;;;;5039897;28;19990;-63
2023/04/17 05:40:44;;;;;;;;;;;9.00;89.40;;;;;;5061924;28;20328;-64
2023/04/17 05:43:11;;;;;;;;;;;9.00;89.50;;;;;;5062384;28;20023;-65
2023/04/17 05:45:40;;;;;;;;;;;9.00;89.50;;;;;;5058344;28;19925;-64
2023/04/17 05:48:09;;;;;;;;;;;8.90;89.60;;;;;;5064036;28;19966;-64
2023/04/17 05:50:37;;;;;;;;;;;9.00;89.60;;;;;;5061289;28;19932;-63
2023/04/17 05:53:05;;;;;;;;;;;9.00;89.60;;;;;;5063030;28;20858;-63
2023/04/17 05:55:36;;;;;;;;;;;9.00;89.60;;;;;;5042030;28;19925;-64
2023/04/17 05:58:05;;;;;;;;;;;9.00;89.60;;;;;;5045680;28;19924;-63
2023/04/17 06:00:32;;;;;;;;;;;9.00;89.60;;;;;;5048991;28;19925;-63
2023/04/17 06:03:04;;;;;;;;;;;9.10;89.60;;;;;;5040617;28;19936;-64
2023/04/17 06:05:37;;;;;;;;;;;9.10;89.50;;;;;;5060031;28;20448;-64
2023/04/17 06:08:05;;;;;;;;;;;9.10;89.40;;;;;;5062521;28;19928;-63
2023/04/17 06:10:33;;;;;;;;;;;9.10;89.30;;;;;;5045847;28;19959;-63
2023/04/17 06:13:01;;;;;;;;;;;9.10;89.50;;;;;;5062411;28;19955;-64
2023/04/17 06:15:28;;;;;;;;;;;9.10;89.50;;;;;;5041323;28;19943;-63
2023/04/17 06:17:55;;;;;;;;;;;9.10;89.50;;;;;;5044756;28;19929;-62
2023/04/17 06:20:23;;;;;;;;;;;9.10;89.50;;;;;;5045065;28;19933;-65
2023/04/17 06:22:51;;;;;;;;;;;9.10;89.60;;;;;;5063795;28;20019;-63
2023/04/17 06:25:18;;;;;;;;;;;9.20;89.10;;;;;;5062170;28;19928;-63
2023/04/17 06:27:45;;;;;;;;;;;9.20;89.50;;;;;;5045258;28;19935;-64
2023/04/17 06:30:12;;;;;;;;;;;9.10;89.60;;;;;;5046995;28;19924;-62
2023/04/17 06:32:48;;;;;;;;;;;9.20;89.60;;;;;;5046580;28;19939;-63
2023/04/17 06:35:15;;;;;;;;;;;9.20;89.60;;;;;;5047282;28;19929;-63
2023/04/17 06:37:47;;;;;;;;;;;9.20;89.70;;;;;;5039242;28;19933;-63
2023/04/17 06:40:15;;;;;;;;;;;9.20;89.60;;;;;;5060135;28;19932;-64
2023/04/17 06:42:42;;;;;;;;;;;9.20;89.50;;;;;;5041482;28;20015;-63
2023/04/17 06:45:13;;;;;;;;;;;9.20;89.50;;;;;;5042995;28;20808;-65
2023/04/17 06:47:41;;;;;;;;;;;9.20;89.50;;;;;;5061856;28;19946;-63
2023/04/17 06:50:09;;;;;;;;;;;9.30;89.30;;;;;;5040595;28;19940;-63
2023/04/17 06:52:36;;;;;;;;;;;9.30;89.00;;;;;;5063489;28;19932;-63
2023/04/17 06:55:03;;;;;;;;;;;9.30;88.90;;;;;;5065282;28;20583;-64
2023/04/17 06:57:32;;;;;;;;;;;9.40;88.50;;;;;;5061620;28;19952;-63
2023/04/17 06:59:59;;;;;;;;;;;9.40;88.80;;;;;;5064995;28;19939;-63
2023/04/17 07:02:27;;;;;;;;;;;9.40;88.70;;;;;;5064935;28;19939;-62
2023/04/17 07:04:54;;;;;;;;;;;9.40;88.60;;;;;;5063954;28;20077;-63
2023/04/17 07:07:21;;;;;;;;;;;9.40;88.50;;;;;;5063528;28;20390;-64
2023/04/17 07:09:48;;;;;;;;;;;9.50;88.30;;;;;;5062184;28;20058;-64
2023/04/17 07:12:15;;;;;;;;;;;9.50;87.90;;;;;;5065274;28;19932;-63
2023/04/17 07:14:43;;;;;;;;;;;9.50;87.60;;;;;;5065466;28;19928;-62
2023/04/17 07:17:10;;;;;;;;;;;9.60;87.50;;;;;;5067149;28;20814;-63
2023/04/17 07:19:37;;;;;;;;;;;9.70;87.20;;;;;;5061435;28;20015;-64
2023/04/17 07:22:05;;;;;;;;;;;9.80;86.70;;;;;;5066883;28;19924;-63
2023/04/17 07:24:33;;;;;;;;;;;10.00;86.40;;;;;;5068273;28;19932;-64
2023/04/17 07:27:00;;;;;;;;;;;10.10;85.90;;;;;;5064126;28;19928;-64
2023/04/17 07:29:27;;;;;;;;;;;10.20;85.30;;;;;;5068420;28;19924;-63
2023/04/17 07:31:55;;;;;;;;;;;10.40;85.40;;;;;;5069526;28;19931;-64
2023/04/17 07:34:23;;;;;;;;;;;10.40;84.30;;;;;;5070438;28;19924;-63
2023/04/17 07:36:50;;;;;;;;;;;10.50;83.80;;;;;;5066622;28;20045;-63
2023/04/17 07:39:17;;;;;;;;;;;10.50;83.40;;;;;;5068773;28;20541;-64
2023/04/17 07:41:44;;;;;;;;;;;10.50;82.80;;;;;;5069854;28;19924;-63
2023/04/17 07:44:11;;;;;;;;;;;10.60;82.70;;;;;;5068977;28;20291;-64
2023/04/17 07:46:38;;;;;;;;;;;10.60;82.80;;;;;;5071111;28;19932;-64
2023/04/17 07:49:06;;;;;;;;;;;10.60;81.90;;;;;;5072006;28;19925;-63
2023/04/17 07:51:33;;;;;;;;;;;10.60;82.10;;;;;;5070261;28;19924;-63
2023/04/17 07:54:00;;;;;;;;;;;10.60;82.00;;;;;;5066879;28;20045;-62
2023/04/17 07:56:27;;;;;;;;;;;10.70;81.90;;;;;;5064071;28;19933;-63
2023/04/17 07:58:54;;;;;;;;;;;10.90;81.60;;;;;;5065296;28;19928;-64
2023/04/17 08:01:21;;;;;;;;;;;10.90;81.20;;;;;;5065973;28;20000;-64
2023/04/17 08:03:48;;;;;;;;;;;11.00;80.50;;;;;;5064535;28;19937;-65
2023/04/17 08:06:16;;;;;;;;;;;11.10;78.90;;;;;;5068503;28;19978;-64
2023/04/17 08:08:46;;;;;;;;;;;11.20;78.30;;;;;;5067994;28;19925;-66
2023/04/17 08:11:13;;;;;;;;;;;11.40;77.00;;;;;;5062750;28;19932;-64
2023/04/17 08:13:40;;;;;;;;;;;11.60;75.90;;;;;;5064850;28;19964;-64
2023/04/17 08:16:07;;;;;;;;;;;11.90;75.50;;;;;;5063638;28;19928;-64
2023/04/17 08:18:36;;;;;;;;;;;12.20;74.70;;;;;;5063764;28;19986;-62
2023/04/17 08:21:02;;;;;;;;;;;12.30;74.40;;;;;;5065103;28;20018;-63
2023/04/17 08:23:31;;;;;;;;;;;12.40;73.00;;;;;;5063057;28;19936;-64
2023/04/17 08:25:57;;;;;;;;;;;12.30;72.30;;;;;;5062162;28;20399;-64
2023/04/17 08:28:24;;;;;;;;;;;12.20;72.80;;;;;;5067942;28;19929;-63
2023/04/17 08:30:51;;;;;;;;;;;12.30;72.10;;;;;;5066349;28;20456;-64
2023/04/17 08:33:18;;;;;;;;;;;12.30;71.90;;;;;;5068052;28;19924;-64
2023/04/17 08:35:45;;;;;;;;;;;12.30;72.40;;;;;;5064281;28;20015;-64
2023/04/17 08:38:13;;;;;;;;;;;12.30;71.40;;;;;;5067456;28;19931;-64
2023/04/17 08:40:42;;;;;;;;;;;12.40;72.40;;;;;;5060242;28;19933;-63
2023/04/17 08:43:13;;;;;;;;;;;12.50;71.80;;;;;;5065272;28;20443;-65
2023/04/17 08:45:43;;;;;;;;;;;12.40;71.00;;;;;;5069199;28;19928;-63
2023/04/17 08:48:12;;;;;;;;;;;12.40;70.10;;;;;;5069234;28;20421;-65
2023/04/17 08:50:41;;;;;;;;;;;12.60;70.40;;;;;;5064865;28;19954;-64
2023/04/17 08:53:08;;;;;;;;;;;12.60;69.90;;;;;;5063698;28;20006;-65
2023/04/17 08:55:35;;;;;;;;;;;12.60;70.00;;;;;;5066642;28;19928;-64
2023/04/17 08:58:04;;;;;;;;;;;12.60;69.90;;;;;;5063006;28;19947;-65
2023/04/17 09:00:32;;;;;;;;;;;12.60;69.00;;;;;;5063707;28;20406;-65
2023/04/17 09:02:59;;;;;;;;;;;12.60;69.40;;;;;;5063196;28;19924;-65
2023/04/17 09:05:29;;;;;;;;;;;12.60;70.10;;;;;;5065147;28;19925;-66
2023/04/17 09:08:06;;;;;;;;;;;12.60;70.40;;;;;;5060022;28;19939;-66
2023/04/17 09:10:37;;;;;;;;;;;12.50;70.50;;;;;;5060804;28;20448;-65
2023/04/17 09:13:05;;;;;;;;;;;12.40;70.40;;;;;;5064764;28;19935;-65
2023/04/17 09:15:32;;;;;;;;;;;12.40;70.50;;;;;;5062904;28;20310;-66
2023/04/17 09:17:59;;;;;;;;;;;12.50;70.70;;;;;;5067522;28;19925;-64
2023/04/17 09:20:26;;;;;;;;;;;12.50;71.70;;;;;;5066012;28;19931;-65
2023/04/17 09:22:58;;;;;;;;;;;12.50;71.30;;;;;;5067169;28;19924;-67
2023/04/17 09:25:26;;;;;;;;;;;12.50;71.00;;;;;;5063174;28;19929;-65
2023/04/17 09:27:53;;;;;;;;;;;12.50;71.20;;;;;;5062826;28;19968;-66
2023/04/17 09:30:25;;;;;;;;;;;12.50;71.70;;;;;;5065347;28;20305;-66
2023/04/17 09:33:02;;;;;;;;;;;12.60;71.50;;;;;;5066158;28;20341;-65
2023/04/17 09:35:30;;;;;;;;;;;12.60;71.50;;;;;;5048322;28;19928;-63
2023/04/17 09:37:58;;;;;;;;;;;12.60;71.40;;;;;;5066169;28;19932;-67
2023/04/17 09:40:25;;;;;;;;;;;12.70;71.60;;;;;;5061786;28;20003;-66
2023/04/17 09:42:56;;;;;;;;;;;12.80;71.80;;;;;;5064937;28;20257;-65
2023/04/17 09:45:25;;;;;;;;;;;12.80;71.70;;;;;;5065717;28;20629;-65
2023/04/17 09:47:54;;;;;;;;;;;12.90;71.80;;;;;;5063935;28;19931;-66
2023/04/17 09:50:24;;;;;;;;;;;12.90;71.40;;;;;;5065232;28;20274;-64
2023/04/17 09:52:51;;;;;;;;;;;12.90;71.40;;;;;;5064612;28;20556;-66
2023/04/17 09:55:20;;;;;;;;;;;12.90;71.50;;;;;;5064308;28;19936;-65
2023/04/17 09:57:47;;;;;;;;;;;12.90;71.40;;;;;;5047143;28;20351;-64
2023/04/17 10:00:16;;;;;;;;;;;12.90;71.90;;;;;;5065678;28;20543;-64
2023/04/17 10:02:44;;;;;;;;;;;13.10;71.40;;;;;;5068070;28;19931;-66
2023/04/17 10:05:11;;;;;;;;;;;13.20;71.30;;;;;;5064753;28;20035;-66
2023/04/17 10:07:38;;;;;;;;;;;13.20;71.70;;;;;;5061391;28;20383;-65
2023/04/17 10:10:08;;;;;;;;;;;13.30;71.40;;;;;;5063644;28;20397;-64
2023/04/17 10:12:36;;;;;;;;;;;13.40;70.40;;;;;;5066849;28;20558;-65
2023/04/17 10:15:03;;;;;;;;;;;13.50;70.60;;;;;;5063409;28;19975;-66
2023/04/17 10:17:32;;;;;;;;;;;13.50;70.50;;;;;;5062747;28;20031;-67
2023/04/17 10:20:14;;;;;;;;;;;13.50;70.80;;;;;;5064993;28;20386;-67
2023/04/17 10:22:43;;;;;;;;;;;13.40;70.40;;;;;;5061779;28;19928;-67
2023/04/17 10:25:22;;;;;;;;;;;13.50;70.20;;;;;;5062507;28;19951;-66
2023/04/17 10:27:59;;;;;;;;;;;13.60;70.20;;;;;;5061915;28;19929;-66
2023/04/17 10:30:40;;;;;;;;;;;13.60;70.00;;;;;;5065660;28;19950;-65
2023/04/17 10:33:23;;;;;;;;;;;13.70;69.20;;;;;;5064138;28;21699;-66
2023/04/17 10:35:50;;;;;;;;;;;13.70;69.20;;;;;;5066445;28;19932;-66
2023/04/17 10:38:30;;;;;;;;;;;13.90;68.70;;;;;;5063538;28;19928;-66
2023/04/17 10:40:56;;;;;;;;;;;13.90;69.00;;;;;;5067677;28;19938;-65
2023/04/17 10:43:23;;;;;;;;;;;13.90;68.50;;;;;;5066740;28;19987;-66
2023/04/17 10:45:54;;;;;;;;;;;13.90;68.80;;;;;;5064805;28;20442;-67
2023/04/17 10:48:22;;;;;;;;;;;14.00;69.00;;;;;;5069301;28;19940;-64
2023/04/17 10:50:48;;;;;;;;;;;14.00;68.20;;;;;;5067707;28;19990;-67
2023/04/17 10:53:34;;;;;;;;;;;14.00;68.60;;;;;;5061245;28;20015;-67
2023/04/17 10:56:02;;;;;;;;;;;13.90;67.90;;;;;;5065460;28;19932;-67
2023/04/17 10:58:29;;;;;;;;;;;13.70;68.20;;;;;;5068018;28;19932;-66
2023/04/17 11:00:56;;;;;;;;;;;13.60;68.50;;;;;;5066033;28;19943;-67
2023/04/17 11:03:24;;;;;;;;;;;13.60;69.10;;;;;;5069119;28;19933;-67
2023/04/17 11:05:51;;;;;;;;;;;13.50;68.20;;;;;;5069912;28;19952;-68
2023/04/17 11:08:18;;;;;;;;;;;13.50;68.40;;;;;;5067678;28;19931;-68
2023/04/17 11:10:44;;;;;;;;;;;13.50;67.70;;;;;;5063883;28;19939;-66
2023/04/17 11:13:12;;;;;;;;;;;13.60;67.90;;;;;;5066650;28;19928;-67
2023/04/17 11:15:39;;;;;;;;;;;13.60;67.70;;;;;;5067144;28;19939;-65
2023/04/17 11:18:06;;;;;;;;;;;13.60;67.20;;;;;;5065122;28;19932;-66
2023/04/17 11:20:33;;;;;;;;;;;13.50;68.20;;;;;;5068488;28;19932;-67
2023/04/17 11:23:00;;;;;;;;;;;13.50;67.60;;;;;;5064196;28;20568;-68
2023/04/17 11:25:30;;;;;;;;;;;13.40;68.80;;;;;;5049424;28;19928;-67
2023/04/17 11:27:57;;;;;;;;;;;13.30;68.50;;;;;;5067667;28;19932;-67
2023/04/17 11:30:26;;;;;;;;;;;13.20;68.80;;;;;;5066163;28;19936;-68
2023/04/17 11:32:52;;;;;;;;;;;13.40;69.20;;;;;;5067244;28;19924;-67
2023/04/17 11:35:22;;;;;;;;;;;13.40;69.30;;;;;;5064332;28;19932;-67
2023/04/17 11:38:05;;;;;;;;;;;13.50;69.30;;;;;;5065703;28;19931;-65
2023/04/17 11:40:32;;;;;;;;;;;13.60;68.40;;;;;;5067438;28;19925;-66
2023/04/17 11:43:02;;;;;;;;;;;13.70;68.90;;;;;;5064784;28;19928;-68
2023/04/17 11:45:33;;;;;;;;;;;13.80;68.50;;;;;;5064297;28;19931;-67
2023/04/17 11:48:01;;;;;;;;;;;13.90;67.20;;;;;;5065154;28;19932;-68
2023/04/17 11:50:28;;;;;;;;;;;13.90;68.20;;;;;;5066763;28;20011;-67
2023/04/17 11:52:56;;;;;;;;;;;14.00;67.70;;;;;;5064218;28;20606;-68
2023/04/17 11:55:23;;;;;;;;;;;14.10;67.60;;;;;;5069899;28;19928;-66
2023/04/17 11:57:51;;;;;;;;;;;14.10;67.10;;;;;;5066669;28;19939;-68
2023/04/17 12:00:20;;;;;;;;;;;14.20;66.60;;;;;;5064321;28;20379;-67
2023/04/17 12:02:48;;;;;;;;;;;14.20;67.40;;;;;;5068776;28;19929;-67
2023/04/17 12:05:16;;;;;;;;;;;14.30;66.10;;;;;;5066385;28;19935;-66
2023/04/17 12:07:43;;;;;;;;;;;14.40;65.90;;;;;;5068466;28;20397;-67
2023/04/17 12:10:10;;;;;;;;;;;14.40;64.00;;;;;;5068111;28;20298;-67
2023/04/17 12:12:37;;;;;;;;;;;14.50;64.00;;;;;;5063821;28;19956;-67
2023/04/17 12:15:04;;;;;;;;;;;14.40;64.20;;;;;;5066110;28;20002;-67
2023/04/17 12:17:30;;;;;;;;;;;14.40;63.80;;;;;;5053068;28;20002;-67
2023/04/17 12:20:02;;;;;;;;;;;14.40;64.70;;;;;;5068822;28;19928;-67
2023/04/17 12:22:29;;;;;;;;;;;14.40;63.80;;;;;;5064033;28;19925;-68
2023/04/17 12:24:55;;;;;;;;;;;14.40;63.70;;;;;;5068449;28;19928;-68
2023/04/17 12:27:22;;;;;;;;;;;14.40;64.30;;;;;;5064759;28;21704;-68
2023/04/17 12:29:49;;;;;;;;;;;14.40;63.20;;;;;;5061854;28;20448;-67
2023/04/17 12:32:16;;;;;;;;;;;14.40;62.40;;;;;;5067334;28;19987;-67
2023/04/17 12:34:42;;;;;;;;;;;14.40;63.00;;;;;;5065167;28;19933;-68
2023/04/17 12:37:10;;;;;;;;;;;14.40;62.30;;;;;;5065395;28;19925;-68
2023/04/17 12:39:37;;;;;;;;;;;14.40;61.80;;;;;;5068850;28;19948;-68
2023/04/17 12:42:04;;;;;;;;;;;14.40;61.00;;;;;;5067380;28;19924;-68
2023/04/17 12:44:31;;;;;;;;;;;14.40;61.40;;;;;;5064484;28;20024;-68
2023/04/17 12:46:57;;;;;;;;;;;14.30;60.10;;;;;;5069186;28;20296;-68
2023/04/17 12:49:24;;;;;;;;;;;14.30;60.00;;;;;;5067664;28;19928;-68
2023/04/17 12:51:51;;;;;;;;;;;14.30;59.20;;;;;;5067323;28;19935;-69
2023/04/17 12:54:19;;;;;;;;;;;14.30;59.80;;;;;;5067381;28;19924;-67
2023/04/17 12:56:46;;;;;;;;;;;14.20;56.40;;;;;;5067790;28;19935;-67
2023/04/17 12:59:13;;;;;;;;;;;14.20;57.50;;;;;;5068221;28;20027;-69
2023/04/17 13:01:39;;;;;;;;;;;14.20;56.80;;;;;;5066519;28;19925;-68
2023/04/17 13:04:06;;;;;;;;;;;14.30;55.30;;;;;;5069255;28;19948;-69
2023/04/17 13:06:33;;;;;;;;;;;14.40;55.70;;;;;;5068637;28;19932;-69
2023/04/17 13:09:00;;;;;;;;;;;14.40;53.80;;;;;;5067371;28;19928;-67
2023/04/17 13:11:28;;;;;;;;;;;14.40;52.40;;;;;;5066228;28;19924;-69
2023/04/17 13:13:54;;;;;;;;;;;14.40;54.00;;;;;;5061970;28;19928;-68
2023/04/17 13:16:21;;;;;;;;;;;14.40;52.40;;;;;;5045190;28;20311;-69
2023/04/17 13:18:48;;;;;;;;;;;14.40;53.80;;;;;;5063660;28;19932;-69
2023/04/17 13:21:14;;;;;;;;;;;14.40;52.90;;;;;;5064920;28;20014;-69
2023/04/17 13:23:41;;;;;;;;;;;14.40;52.90;;;;;;5066117;28;20782;-68
2023/04/17 13:26:08;;;;;;;;;;;14.40;51.60;;;;;;5049439;28;19931;-69
2023/04/17 13:28:36;;;;;;;;;;;14.40;50.10;;;;;;5068984;28;19935;-68
2023/04/17 13:31:03;;;;;;;;;;;14.30;50.40;;;;;;5066969;28;23212;-70
2023/04/17 13:33:29;;;;;;;;;;;14.40;50.60;;;;;;5063721;28;20341;-69
2023/04/17 13:35:56;;;;;;;;;;;14.40;50.70;;;;;;5062538;28;19932;-68
2023/04/17 13:38:23;;;;;;;;;;;14.50;49.90;;;;;;5064328;28;19928;-69
2023/04/17 13:40:49;;;;;;;;;;;14.50;50.30;;;;;;5066622;28;20380;-70
2023/04/17 13:43:16;;;;;;;;;;;14.60;51.00;;;;;;5063130;28;20402;-68
2023/04/17 13:45:44;;;;;;;;;;;14.60;50.00;;;;;;5061345;28;19958;-69
2023/04/17 13:48:11;;;;;;;;;;;14.60;52.00;;;;;;5065374;28;19944;-70
2023/04/17 13:50:38;;;;;;;;;;;14.60;51.10;;;;;;5043816;28;20012;-70
2023/04/17 13:53:05;;;;;;;;;;;14.50;49.50;;;;;;5062470;28;19940;-70
2023/04/17 13:55:32;;;;;;;;;;;14.50;51.00;;;;;;5063119;28;19924;-70
2023/04/17 13:57:58;;;;;;;;;;;14.50;51.60;;;;;;5063644;28;19924;-72
2023/04/17 14:00:25;;;;;;;;;;;14.40;51.00;;;;;;5063387;28;19939;-71
2023/04/17 14:02:53;;;;;;;;;;;14.40;51.30;;;;;;5065857;28;19929;-70
2023/04/17 14:05:20;;;;;;;;;;;14.30;52.20;;;;;;5065058;28;19929;-70
2023/04/17 14:07:47;;;;;;;;;;;14.30;51.80;;;;;;5060867;28;19928;-70
2023/04/17 14:10:13;;;;;;;;;;;14.30;51.10;;;;;;5066401;28;19936;-71
2023/04/17 14:12:40;;;;;;;;;;;14.30;50.90;;;;;;5064136;28;20081;-70
2023/04/17 14:15:07;;;;;;;;;;;14.30;50.70;;;;;;5067815;28;20047;-71
2023/04/17 14:17:36;;;;;;;;;;;14.30;51.10;;;;;;5070256;28;19951;-70
2023/04/17 14:20:05;;;;;;;;;;;14.30;50.90;;;;;;5066976;28;19939;-70
2023/04/17 14:22:32;;;;;;;;;;;14.30;50.80;;;;;;5068777;28;19928;-69
2023/04/17 14:24:58;;;;;;;;;;;14.30;50.60;;;;;;5070208;28;20069;-70
2023/04/17 14:27:25;;;;;;;;;;;14.40;49.40;;;;;;5071497;28;20353;-69
2023/04/17 14:29:52;;;;;;;;;;;14.40;49.80;;;;;;5066993;28;19932;-70